createdAt,value
2022-10-01T00:02:20.747Z,0
2022-10-01T00:32:23.000Z,1.0
2022-10-01T01:02:27.000Z,0.0
2022-10-01T01:32:29.000Z,1.0
2022-10-01T02:02:29.734Z,1
2022-10-01T02:32:36.000Z,0.0
2022-10-01T03:02:40.592Z,0
2022-10-01T03:32:45.596Z,1
2022-10-01T04:02:48.949Z,1
2022-10-01T04:32:51.606Z,1
2022-10-01T05:02:55.570Z,0
2022-10-01T05:33:06.388Z,1
2022-10-01T06:03:07.503Z,4
2022-10-01T06:33:10.424Z,10
2022-10-01T07:03:14.467Z,27
2022-10-01T07:33:16.425Z,28
2022-10-01T08:04:24.446Z,60
2022-10-01T08:34:27.000Z,99.0
2022-10-01T09:04:33.000Z,107.0
2022-10-01T09:34:34.000Z,94.0
2022-10-01T10:04:37.000Z,105.0
2022-10-01T10:34:44.000Z,89.0
2022-10-01T11:04:47.000Z,64.0
2022-10-01T11:34:49.042Z,73
2022-10-01T12:04:58.057Z,79
2022-10-01T12:35:02.000Z,124.0
2022-10-01T13:05:12.000Z,105.0
2022-10-01T13:35:13.000Z,141.0
2022-10-01T14:05:24.165Z,102
2022-10-01T14:35:25.000Z,83.0
2022-10-01T15:05:25.000Z,56.0
2022-10-01T15:35:29.000Z,52.0
2022-10-01T16:05:30.000Z,53.0
2022-10-01T16:35:36.000Z,16.0
2022-10-01T17:05:37.317Z,3
2022-10-01T17:35:42.000Z,0.0
2022-10-01T18:05:45.000Z,1.0
2022-10-01T18:35:46.000Z,1.0
2022-10-01T19:05:48.000Z,1.0
2022-10-01T19:35:52.000Z,0.0
2022-10-01T20:05:54.000Z,0.0
2022-10-01T20:35:59.000Z,1.0
2022-10-01T21:06:04.000Z,0.0
2022-10-01T21:36:08.000Z,0.0
2022-10-01T22:06:11.000Z,0.0
2022-10-01T22:36:19.000Z,0.0
2022-10-01T23:06:21.000Z,0.0
2022-10-01T23:36:23.000Z,1.0
